createdAt,value
2022-08-27T00:00:44.010Z,4.00
2022-08-27T00:03:11.617Z,3.50
2022-08-27T00:05:39.148Z,4.00
2022-08-27T00:08:07.882Z,3.00
2022-08-27T00:10:34.842Z,4.00
2022-08-27T00:13:01.759Z,5.50
2022-08-27T00:15:28.985Z,3.25
2022-08-27T00:17:56.472Z,4.00
2022-08-27T00:20:26.131Z,3.50
2022-08-27T00:22:53.655Z,3.25
2022-08-27T00:25:21.161Z,3.00
2022-08-27T00:27:47.944Z,3.00
2022-08-27T00:30:16.742Z,3.25
2022-08-27T00:32:44.056Z,4.25
2022-08-27T00:35:11.109Z,4.50
2022-08-27T00:37:38.096Z,4.00
2022-08-27T00:40:08.767Z,4.00
2022-08-27T00:42:35.534Z,3.75
2022-08-27T00:45:03.650Z,4.00
2022-08-27T00:47:32.740Z,3.00
2022-08-27T00:50:09.040Z,4.00
2022-08-27T00:52:49.005Z,4.00
2022-08-27T00:55:20.571Z,4.00
2022-08-27T00:57:55.784Z,4.25
2022-08-27T01:00:22.650Z,3.75
2022-08-27T01:02:50.125Z,4.00
2022-08-27T01:05:21.782Z,2.00
2022-08-27T01:07:51.850Z,3.75
2022-08-27T01:10:21.947Z,4.25
2022-08-27T01:12:53.326Z,3.00
2022-08-27T01:15:23.014Z,3.25
2022-08-27T01:17:51.529Z,4.00
2022-08-27T01:20:22.422Z,4.00
2022-08-27T01:22:57.824Z,4.00
2022-08-27T01:25:25.524Z,4.00
2022-08-27T01:27:53.838Z,3.00
2022-08-27T01:30:21.830Z,4.00
2022-08-27T01:32:49.538Z,3.00
2022-08-27T01:35:18.020Z,3.00
2022-08-27T01:37:47.697Z,3.00
2022-08-27T01:40:16.852Z,3.00
2022-08-27T01:42:47.864Z,3.50
2022-08-27T01:45:24.986Z,3.00
2022-08-27T01:47:51.944Z,2.75
2022-08-27T01:50:23.028Z,3.00
2022-08-27T01:52:51.141Z,3.00
2022-08-27T01:55:22.415Z,3.00
2022-08-27T01:57:49.709Z,3.00
2022-08-27T02:00:25.907Z,3.50
2022-08-27T02:02:53.246Z,3.00
2022-08-27T02:05:20.292Z,3.00
2022-08-27T02:07:47.088Z,1.25
2022-08-27T02:10:19.773Z,3.00
2022-08-27T02:12:46.946Z,3.00
2022-08-27T02:15:13.908Z,3.00
2022-08-27T02:17:40.721Z,3.25
2022-08-27T02:20:09.610Z,2.25
2022-08-27T02:22:37.240Z,2.25
2022-08-27T02:25:04.330Z,3.00
2022-08-27T02:27:31.241Z,3.50
2022-08-27T02:29:57.956Z,4.00
2022-08-27T02:32:32.126Z,3.00
2022-08-27T02:34:59.800Z,3.00
2022-08-27T02:37:26.860Z,4.50
2022-08-27T02:39:53.935Z,3.25
2022-08-27T02:42:20.785Z,2.50
2022-08-27T02:44:47.630Z,2.25
2022-08-27T02:47:15.569Z,3.00
2022-08-27T02:49:42.867Z,3.25
2022-08-27T02:52:09.664Z,4.00
2022-08-27T02:54:36.475Z,3.25
2022-08-27T02:57:03.433Z,3.00
2022-08-27T02:59:30.167Z,4.00
2022-08-27T03:01:57.031Z,3.00
2022-08-27T03:04:24.127Z,2.00
2022-08-27T03:06:50.871Z,3.75
2022-08-27T03:09:17.577Z,3.00
2022-08-27T03:11:44.283Z,4.25
2022-08-27T03:14:11.017Z,3.25
2022-08-27T03:16:37.977Z,3.00
2022-08-27T03:19:07.476Z,3.00
2022-08-27T03:21:35.951Z,3.00
2022-08-27T03:24:11.211Z,4.25
2022-08-27T03:26:39.125Z,5.00
2022-08-27T03:29:06.461Z,3.00
2022-08-27T03:31:33.505Z,2.00
2022-08-27T03:34:06.897Z,3.00
2022-08-27T03:36:33.949Z,4.00
2022-08-27T03:39:00.673Z,4.00
2022-08-27T03:41:54.162Z,3.25
2022-08-27T03:44:21.964Z,4.25
2022-08-27T03:46:50.393Z,3.00
2022-08-27T03:49:20.336Z,2.50
2022-08-27T03:51:48.385Z,4.50
2022-08-27T03:54:15.114Z,3.00
2022-08-27T03:56:42.018Z,2.50
2022-08-27T03:59:09.016Z,3.00
2022-08-27T04:01:36.165Z,2.25
2022-08-27T04:04:03.703Z,2.75
2022-08-27T04:06:30.441Z,3.75
2022-08-27T04:08:57.121Z,2.50
2022-08-27T04:11:24.348Z,4.00
2022-08-27T04:13:51.528Z,4.00
2022-08-27T04:16:18.331Z,3.50
2022-08-27T04:18:45.165Z,2.75
2022-08-27T04:21:13.939Z,4.00
2022-08-27T04:23:42.315Z,3.00
2022-08-27T04:26:11.257Z,3.00
2022-08-27T04:28:38.961Z,4.00
2022-08-27T04:31:07.674Z,3.75
2022-08-27T04:33:50.601Z,3.75
2022-08-27T04:36:17.891Z,4.25
2022-08-27T04:38:44.628Z,4.25
2022-08-27T04:41:21.640Z,3.75
2022-08-27T04:43:50.694Z,4.00
2022-08-27T04:46:29.249Z,4.50
2022-08-27T04:48:58.461Z,5.00
2022-08-27T04:51:26.433Z,3.50
2022-08-27T04:53:53.960Z,5.25
2022-08-27T04:56:23.275Z,4.00
2022-08-27T04:58:51.629Z,5.00
2022-08-27T05:01:21.170Z,5.25
2022-08-27T05:03:48.115Z,5.75
2022-08-27T05:06:15.760Z,5.00
2022-08-27T05:08:42.488Z,6.00
2022-08-27T05:11:11.954Z,6.50
2022-08-27T05:13:38.893Z,8.75
2022-08-27T05:16:08.614Z,6.25
2022-08-27T05:18:42.083Z,9.25
2022-08-27T05:21:23.380Z,7.00
2022-08-27T05:23:51.487Z,4.00
2022-08-27T05:26:19.000Z,8.50
2022-08-27T05:28:45.952Z,6.25
2022-08-27T05:31:14.260Z,5.50
2022-08-27T05:33:42.682Z,7.75
2022-08-27T05:36:20.657Z,8.75
2022-08-27T05:38:51.677Z,6.50
2022-08-27T05:41:25.151Z,8.25
2022-08-27T05:43:59.231Z,8.00
2022-08-27T05:46:29.171Z,8.00
2022-08-27T05:48:58.552Z,8.00
2022-08-27T05:51:34.865Z,8.75
2022-08-27T05:54:14.966Z,8.00
2022-08-27T05:56:42.573Z,9.50
2022-08-27T05:59:28.197Z,9.00
2022-08-27T06:01:56.551Z,8.00
2022-08-27T06:04:25.496Z,7.75
2022-08-27T06:06:52.900Z,7.25
2022-08-27T06:09:23.309Z,9.00
2022-08-27T06:11:50.372Z,9.00
2022-08-27T06:14:17.096Z,7.25
2022-08-27T06:16:44.154Z,9.00
2022-08-27T06:19:12.367Z,10.00
2022-08-27T06:21:41.339Z,7.50
2022-08-27T06:24:09.213Z,6.75
2022-08-27T06:26:36.530Z,9.75
2022-08-27T06:29:05.426Z,9.00
2022-08-27T06:31:33.107Z,7.75
2022-08-27T06:34:02.935Z,8.75
2022-08-27T06:36:37.953Z,8.75
2022-08-27T06:39:05.307Z,9.25
2022-08-27T06:41:33.682Z,8.00
2022-08-27T06:44:00.907Z,7.00
2022-08-27T06:46:29.708Z,10.25
2022-08-27T06:48:59.520Z,9.00
2022-08-27T06:51:29.892Z,9.50
2022-08-27T06:53:59.838Z,9.00
2022-08-27T06:56:27.091Z,10.25
2022-08-27T06:58:55.572Z,10.25
2022-08-27T07:01:31.357Z,9.00
2022-08-27T07:04:00.106Z,11.00
2022-08-27T07:06:29.668Z,6.25
2022-08-27T07:08:57.249Z,7.50
2022-08-27T07:11:24.271Z,9.00
2022-08-27T07:13:51.576Z,9.25
2022-08-27T07:16:23.168Z,9.50
2022-08-27T07:18:52.185Z,9.75
2022-08-27T07:21:22.658Z,10.00
2022-08-27T07:23:51.830Z,7.75
2022-08-27T07:26:20.590Z,8.50
2022-08-27T07:28:48.202Z,9.25
2022-08-27T07:31:19.487Z,9.00
2022-08-27T07:33:51.355Z,10.25
2022-08-27T07:36:20.904Z,12.25
2022-08-27T07:38:52.686Z,8.50
2022-08-27T07:41:31.354Z,11.00
2022-08-27T07:44:19.595Z,7.25
2022-08-27T07:46:48.963Z,8.00
2022-08-27T07:49:17.549Z,9.50
2022-08-27T07:51:44.562Z,10.50
2022-08-27T07:54:11.427Z,7.75
2022-08-27T07:56:38.200Z,10.50
2022-08-27T07:59:04.901Z,8.25
2022-08-27T08:01:31.661Z,8.75
2022-08-27T08:03:58.412Z,7.75
2022-08-27T08:06:25.134Z,10.00
2022-08-27T08:08:52.185Z,9.50
2022-08-27T08:11:20.556Z,7.25
2022-08-27T08:13:47.745Z,8.25
2022-08-27T08:16:15.014Z,8.00
2022-08-27T08:18:42.201Z,9.50
2022-08-27T08:21:12.083Z,9.00
2022-08-27T08:23:39.124Z,9.25
2022-08-27T08:26:07.412Z,11.00
2022-08-27T08:28:34.264Z,9.00
2022-08-27T08:31:01.576Z,8.25
2022-08-27T08:33:31.630Z,10.25
2022-08-27T08:36:05.861Z,10.75
2022-08-27T08:38:32.891Z,12.00
2022-08-27T08:40:59.797Z,9.00
2022-08-27T08:43:41.795Z,11.00
2022-08-27T08:46:10.019Z,10.00
2022-08-27T08:48:41.495Z,9.75
2022-08-27T08:51:29.762Z,8.50
2022-08-27T08:54:07.286Z,9.25
2022-08-27T08:56:57.725Z,11.25
2022-08-27T08:59:31.364Z,11.00
2022-08-27T09:01:58.815Z,10.00
2022-08-27T09:04:30.117Z,8.75
2022-08-27T09:07:33.444Z,9.00
2022-08-27T09:10:19.550Z,8.00
2022-08-27T09:12:46.347Z,10.00
2022-08-27T09:15:19.855Z,8.00
2022-08-27T09:17:47.869Z,8.25
2022-08-27T09:20:20.216Z,9.25
2022-08-27T09:23:05.657Z,9.50
2022-08-27T09:25:35.476Z,10.00
2022-08-27T09:28:27.872Z,8.50
2022-08-27T09:30:56.023Z,9.00
2022-08-27T09:33:22.970Z,10.25
2022-08-27T09:35:50.378Z,8.50
2022-08-27T09:38:27.518Z,9.50
2022-08-27T09:40:58.170Z,8.50
2022-08-27T09:43:28.583Z,7.50
2022-08-27T09:45:59.808Z,9.00
2022-08-27T09:48:31.019Z,8.50
2022-08-27T09:51:02.761Z,11.25
2022-08-27T09:53:37.545Z,10.00
2022-08-27T09:56:09.086Z,10.50
2022-08-27T09:58:49.865Z,9.25
2022-08-27T10:01:26.442Z,9.75
2022-08-27T10:04:27.607Z,11.50
2022-08-27T10:06:54.914Z,11.00
2022-08-27T10:09:35.715Z,9.25
2022-08-27T10:12:36.416Z,8.25
2022-08-27T10:15:05.733Z,9.25
2022-08-27T10:18:03.113Z,8.25
2022-08-27T10:20:40.897Z,11.00
2022-08-27T10:23:26.548Z,9.75
2022-08-27T10:26:12.829Z,11.50
2022-08-27T10:29:10.085Z,9.75
2022-08-27T10:32:05.568Z,10.50
2022-08-27T10:35:06.010Z,9.50
2022-08-27T10:38:07.963Z,10.50
2022-08-27T10:40:42.739Z,7.00
2022-08-27T10:43:09.511Z,8.50
2022-08-27T10:45:45.786Z,6.00
2022-08-27T10:48:44.911Z,7.25
2022-08-27T10:51:24.442Z,9.50
2022-08-27T10:54:09.933Z,8.25
2022-08-27T10:56:44.460Z,8.00
2022-08-27T10:59:27.303Z,6.00
2022-08-27T11:02:18.184Z,5.50
2022-08-27T11:04:53.676Z,7.75
2022-08-27T11:07:30.380Z,6.00
2022-08-27T11:10:17.643Z,6.25
2022-08-27T11:12:52.010Z,7.00
2022-08-27T11:15:31.861Z,7.00
2022-08-27T11:18:16.847Z,8.00
2022-08-27T11:21:00.082Z,6.50
2022-08-27T11:23:40.021Z,6.00
2022-08-27T11:26:07.715Z,6.75
2022-08-27T11:28:42.103Z,5.25
2022-08-27T11:31:15.312Z,6.25
2022-08-27T11:34:08.575Z,7.25
2022-08-27T11:37:12.262Z,6.50
2022-08-27T11:40:11.007Z,6.00
2022-08-27T11:42:45.847Z,4.00
2022-08-27T11:45:17.639Z,4.50
2022-08-27T11:47:56.058Z,5.00
2022-08-27T11:50:25.773Z,5.50
2022-08-27T11:53:06.887Z,5.00
2022-08-27T11:55:39.329Z,4.00
2022-08-27T11:58:32.972Z,6.00
2022-08-27T12:01:04.282Z,6.00
2022-08-27T12:03:33.781Z,6.25
2022-08-27T12:06:02.499Z,5.75
2022-08-27T12:08:35.074Z,6.00
2022-08-27T12:11:20.085Z,6.00
2022-08-27T12:14:05.446Z,5.00
2022-08-27T12:17:08.428Z,5.50
2022-08-27T12:20:06.078Z,5.75
2022-08-27T12:23:36.398Z,7.00
2022-08-27T12:26:21.711Z,4.25
2022-08-27T12:28:48.614Z,4.00
2022-08-27T12:31:22.888Z,5.00
2022-08-27T12:33:52.092Z,5.75
2022-08-27T12:36:28.476Z,6.25
2022-08-27T12:38:58.981Z,4.50
2022-08-27T12:41:44.249Z,5.00
2022-08-27T12:44:23.443Z,4.50
2022-08-27T12:46:54.823Z,6.50
2022-08-27T12:49:38.806Z,5.75
2022-08-27T12:52:17.424Z,4.25
2022-08-27T12:55:16.350Z,5.25
2022-08-27T12:57:58.738Z,5.25
2022-08-27T13:00:27.045Z,4.50
2022-08-27T13:03:24.063Z,5.25
2022-08-27T13:05:51.306Z,3.50
2022-08-27T13:08:22.257Z,5.25
2022-08-27T13:10:50.055Z,3.75
2022-08-27T13:13:20.764Z,4.00
2022-08-27T13:15:55.411Z,7.00
2022-08-27T13:18:23.640Z,5.00
2022-08-27T13:21:00.162Z,6.75
2022-08-27T13:23:28.253Z,5.00
2022-08-27T13:26:09.785Z,5.75
2022-08-27T13:28:38.932Z,5.25
2022-08-27T13:31:07.765Z,5.25
2022-08-27T13:33:38.830Z,6.25
2022-08-27T13:36:06.997Z,4.75
2022-08-27T13:38:38.480Z,5.25
2022-08-27T13:41:29.519Z,5.75
2022-08-27T13:43:59.587Z,4.00
2022-08-27T13:46:29.959Z,4.50
2022-08-27T13:48:58.989Z,4.00
2022-08-27T13:51:33.377Z,5.00
2022-08-27T13:54:16.028Z,5.00
2022-08-27T13:56:49.237Z,4.00
2022-08-27T13:59:27.475Z,4.50
2022-08-27T14:02:00.508Z,3.50
2022-08-27T14:04:36.988Z,4.00
2022-08-27T14:07:20.827Z,4.00
2022-08-27T14:09:55.157Z,5.25
2022-08-27T14:12:38.431Z,4.25
2022-08-27T14:15:32.980Z,4.75
2022-08-27T14:18:00.564Z,4.00
2022-08-27T14:20:28.087Z,5.25
2022-08-27T14:22:55.860Z,4.00
2022-08-27T14:25:22.743Z,5.25
2022-08-27T14:27:54.346Z,4.25
2022-08-27T14:30:24.603Z,4.25
2022-08-27T14:32:59.113Z,4.00
2022-08-27T14:35:26.458Z,4.00
2022-08-27T14:37:54.351Z,4.50
2022-08-27T14:40:21.378Z,5.00
2022-08-27T14:42:48.231Z,4.50
2022-08-27T14:45:15.288Z,4.50
2022-08-27T14:47:43.870Z,6.00
2022-08-27T14:50:12.938Z,4.25
2022-08-27T14:52:40.879Z,5.00
2022-08-27T14:55:14.477Z,5.00
2022-08-27T14:57:41.208Z,4.00
2022-08-27T15:00:10.087Z,4.75
2022-08-27T15:02:44.186Z,5.25
2022-08-27T15:05:16.449Z,4.75
2022-08-27T15:07:45.687Z,5.25
2022-08-27T15:10:14.476Z,5.75
2022-08-27T15:12:41.483Z,6.25
2022-08-27T15:15:10.581Z,3.00
2022-08-27T15:17:37.855Z,5.75
2022-08-27T15:20:09.146Z,5.00
2022-08-27T15:22:40.174Z,6.25
2022-08-27T15:25:11.049Z,5.50
2022-08-27T15:27:39.246Z,5.50
2022-08-27T15:30:09.155Z,4.75
2022-08-27T15:32:39.736Z,4.50
2022-08-27T15:35:12.494Z,4.25
2022-08-27T15:37:39.346Z,5.00
2022-08-27T15:40:07.052Z,6.25
2022-08-27T15:42:34.080Z,3.50
2022-08-27T15:45:01.017Z,5.75
2022-08-27T15:47:27.812Z,5.75
2022-08-27T15:49:54.618Z,5.00
2022-08-27T15:52:22.518Z,3.00
2022-08-27T15:54:50.134Z,6.00
2022-08-27T15:57:18.827Z,5.50
2022-08-27T15:59:45.471Z,6.00
2022-08-27T16:02:16.477Z,6.00
2022-08-27T16:04:43.995Z,4.50
2022-08-27T16:07:16.643Z,6.00
2022-08-27T16:09:48.117Z,5.00
2022-08-27T16:12:26.653Z,4.00
2022-08-27T16:14:53.816Z,5.75
2022-08-27T16:17:21.211Z,4.00
2022-08-27T16:19:48.165Z,4.25
2022-08-27T16:22:16.326Z,5.00
2022-08-27T16:24:43.144Z,4.25
2022-08-27T16:27:09.937Z,5.00
2022-08-27T16:29:37.064Z,5.25
2022-08-27T16:32:04.457Z,5.50
2022-08-27T16:34:32.461Z,4.25
2022-08-27T16:37:00.184Z,6.00
2022-08-27T16:39:31.946Z,6.75
2022-08-27T16:42:00.573Z,8.00
2022-08-27T16:44:27.454Z,5.75
2022-08-27T16:46:54.080Z,6.00
2022-08-27T16:49:39.363Z,5.25
2022-08-27T16:52:09.407Z,5.50
2022-08-27T16:54:36.088Z,6.50
2022-08-27T16:57:02.781Z,4.00
2022-08-27T16:59:29.595Z,4.00
2022-08-27T17:01:57.211Z,4.00
2022-08-27T17:04:30.473Z,6.00
2022-08-27T17:06:58.458Z,5.75
2022-08-27T17:09:26.535Z,5.00
2022-08-27T17:11:57.363Z,6.25
2022-08-27T17:14:24.401Z,6.00
2022-08-27T17:16:54.178Z,5.75
2022-08-27T17:19:26.233Z,6.25
2022-08-27T17:21:55.965Z,6.75
2022-08-27T17:24:22.914Z,8.25
2022-08-27T17:26:49.578Z,6.00
2022-08-27T17:29:16.216Z,11.00
2022-08-27T17:31:43.806Z,9.00
2022-08-27T17:34:21.327Z,8.25
2022-08-27T17:36:48.197Z,5.25
2022-08-27T17:39:15.577Z,5.50
2022-08-27T17:41:47.862Z,3.25
2022-08-27T17:44:25.856Z,4.00
2022-08-27T17:46:54.739Z,4.00
2022-08-27T17:49:21.984Z,5.00
2022-08-27T17:51:50.565Z,5.00
2022-08-27T17:54:34.000Z,4.25
2022-08-27T17:57:03.416Z,5.00
2022-08-27T17:59:30.126Z,4.75
2022-08-27T18:01:57.689Z,6.00
2022-08-27T18:04:24.536Z,4.00
2022-08-27T18:06:51.322Z,5.00
2022-08-27T18:09:18.321Z,5.50
2022-08-27T18:11:46.414Z,3.00
2022-08-27T18:14:18.179Z,4.00
2022-08-27T18:16:48.111Z,5.00
2022-08-27T18:19:14.817Z,4.50
2022-08-27T18:21:46.759Z,3.50
2022-08-27T18:24:14.488Z,4.50
2022-08-27T18:26:41.287Z,4.00
2022-08-27T18:29:08.136Z,4.00
2022-08-27T18:31:34.807Z,4.50
2022-08-27T18:34:01.556Z,5.00
2022-08-27T18:36:28.465Z,5.25
2022-08-27T18:38:55.106Z,4.00
2022-08-27T18:41:22.552Z,6.25
2022-08-27T18:43:50.308Z,6.25
2022-08-27T18:46:17.693Z,5.50
2022-08-27T18:48:44.834Z,4.25
2022-08-27T18:51:15.298Z,5.00
2022-08-27T18:53:44.428Z,5.50
2022-08-27T18:56:16.830Z,4.50
2022-08-27T18:58:44.704Z,5.00
2022-08-27T19:01:15.629Z,5.00
2022-08-27T19:03:48.489Z,6.00
2022-08-27T19:06:18.539Z,7.00
2022-08-27T19:08:50.092Z,3.75
2022-08-27T19:11:16.861Z,6.00
2022-08-27T19:13:44.018Z,5.00
2022-08-27T19:16:18.900Z,3.00
2022-08-27T19:18:47.271Z,5.50
2022-08-27T19:21:14.558Z,6.00
2022-08-27T19:23:41.922Z,7.00
2022-08-27T19:26:18.158Z,5.00
2022-08-27T19:28:45.241Z,6.00
2022-08-27T19:31:14.428Z,6.25
2022-08-27T19:33:41.438Z,7.00
2022-08-27T19:36:15.430Z,5.50
2022-08-27T19:38:43.797Z,6.50
2022-08-27T19:41:11.247Z,5.50
2022-08-27T19:43:38.371Z,7.25
2022-08-27T19:46:05.802Z,4.50
2022-08-27T19:48:34.269Z,6.75
2022-08-27T19:51:01.304Z,7.50
2022-08-27T19:53:28.246Z,7.00
2022-08-27T19:55:55.012Z,10.50
2022-08-27T19:58:21.829Z,8.00
2022-08-27T20:00:48.752Z,6.50
2022-08-27T20:03:15.929Z,6.00
2022-08-27T20:05:43.988Z,6.25
2022-08-27T20:08:10.784Z,7.75
2022-08-27T20:10:40.140Z,6.50
2022-08-27T20:13:07.057Z,5.50
2022-08-27T20:15:35.312Z,6.75
2022-08-27T20:18:03.418Z,9.00
2022-08-27T20:20:31.460Z,9.75
2022-08-27T20:22:59.927Z,7.50
2022-08-27T20:25:26.582Z,9.00
2022-08-27T20:27:53.589Z,5.75
2022-08-27T20:30:23.274Z,10.25
2022-08-27T20:32:50.321Z,11.75
2022-08-27T20:35:18.399Z,10.25
2022-08-27T20:37:46.300Z,9.00
2022-08-27T20:40:20.396Z,10.50
2022-08-27T20:42:47.108Z,9.75
2022-08-27T20:45:15.064Z,9.25
2022-08-27T20:47:43.373Z,11.00
2022-08-27T20:50:11.869Z,10.00
2022-08-27T20:52:39.386Z,9.75
2022-08-27T20:55:06.797Z,10.50
2022-08-27T20:57:33.469Z,8.00
2022-08-27T21:00:19.141Z,8.00
2022-08-27T21:02:46.970Z,9.00
2022-08-27T21:05:16.560Z,8.00
2022-08-27T21:07:44.594Z,8.00
2022-08-27T21:10:11.629Z,6.50
2022-08-27T21:12:38.267Z,8.00
2022-08-27T21:15:06.251Z,5.25
2022-08-27T21:17:32.879Z,5.75
2022-08-27T21:19:59.496Z,5.25
2022-08-27T21:22:26.926Z,6.75
2022-08-27T21:24:53.739Z,5.00
2022-08-27T21:27:21.525Z,5.50
2022-08-27T21:29:48.628Z,5.25
2022-08-27T21:32:15.903Z,6.25
2022-08-27T21:34:43.047Z,5.25
2022-08-27T21:37:11.658Z,5.00
2022-08-27T21:39:39.978Z,5.75
2022-08-27T21:42:07.807Z,7.00
2022-08-27T21:44:35.393Z,6.75
2022-08-27T21:47:03.858Z,6.25
2022-08-27T21:49:32.595Z,7.00
2022-08-27T21:52:01.001Z,6.00
2022-08-27T21:54:28.222Z,6.25
2022-08-27T21:56:54.924Z,5.50
2022-08-27T21:59:22.033Z,6.50
2022-08-27T22:01:55.821Z,7.00
2022-08-27T22:04:29.836Z,5.75
2022-08-27T22:06:59.567Z,6.50
2022-08-27T22:09:27.299Z,6.00
2022-08-27T22:11:54.924Z,5.00
2022-08-27T22:14:21.662Z,6.00
2022-08-27T22:16:48.308Z,6.00
2022-08-27T22:19:14.911Z,6.00
2022-08-27T22:21:41.664Z,5.75
2022-08-27T22:24:08.813Z,6.00
2022-08-27T22:26:35.445Z,5.00
2022-08-27T22:29:03.857Z,6.00
2022-08-27T22:31:32.600Z,6.25
2022-08-27T22:34:00.642Z,6.00
2022-08-27T22:36:28.084Z,6.00
2022-08-27T22:38:54.870Z,5.00
2022-08-27T22:41:30.095Z,4.25
2022-08-27T22:43:59.379Z,6.00
2022-08-27T22:46:26.085Z,5.00
2022-08-27T22:48:52.728Z,7.00
2022-08-27T22:51:19.408Z,4.75
2022-08-27T22:53:46.374Z,6.00
2022-08-27T22:56:13.517Z,5.25
2022-08-27T22:58:45.829Z,6.25
2022-08-27T23:01:13.729Z,5.75
2022-08-27T23:03:40.809Z,7.25
2022-08-27T23:06:07.649Z,6.75
2022-08-27T23:08:34.299Z,6.25
2022-08-27T23:11:03.498Z,5.50
2022-08-27T23:13:31.632Z,7.25
2022-08-27T23:16:00.202Z,5.50
2022-08-27T23:18:27.507Z,6.50
2022-08-27T23:20:54.192Z,6.25
2022-08-27T23:23:20.832Z,6.50
2022-08-27T23:26:06.476Z,8.00
2022-08-27T23:28:33.134Z,8.00
2022-08-27T23:31:00.126Z,9.00
2022-08-27T23:33:26.812Z,8.25
2022-08-27T23:35:53.507Z,8.25
2022-08-27T23:38:21.801Z,8.25
2022-08-27T23:40:49.573Z,7.00
2022-08-27T23:43:18.328Z,6.00
2022-08-27T23:45:45.118Z,6.00
2022-08-27T23:48:13.130Z,8.25
2022-08-27T23:50:40.889Z,8.75
2022-08-27T23:53:07.725Z,7.00
2022-08-27T23:55:34.434Z,8.00
2022-08-27T23:58:02.576Z,10.50
